createdAt,value
2022-10-13T00:00:35.580Z,5.53
2022-10-13T00:03:03.191Z,5.55
2022-10-13T00:05:30.640Z,7.13
2022-10-13T00:07:57.977Z,6.35
2022-10-13T00:12:51.662Z,4.45
2022-10-13T00:15:21.695Z,3.78
2022-10-13T00:17:48.398Z,4.72
2022-10-13T00:20:15.068Z,4.03
2022-10-13T00:22:41.728Z,4.03
2022-10-13T00:25:08.827Z,4.28
2022-10-13T00:27:35.517Z,4.10
2022-10-13T00:30:02.447Z,3.72
2022-10-13T00:32:29.748Z,3.95
2022-10-13T00:37:25.252Z,3.90
2022-10-13T00:39:51.946Z,4.10
2022-10-13T00:42:23.361Z,4.53
2022-10-13T00:45:17.710Z,4.72
2022-10-13T00:47:48.098Z,5.55
2022-10-13T00:50:18.337Z,4.25
2022-10-13T00:52:48.053Z,4.45
2022-10-13T00:55:19.292Z,4.28
2022-10-13T00:57:47.916Z,4.10
2022-10-13T01:00:14.968Z,3.67
2022-10-13T01:02:41.670Z,4.60
2022-10-13T01:05:08.938Z,4.10
2022-10-13T01:07:36.212Z,4.35
2022-10-13T01:10:03.796Z,5.68
2022-10-13T01:12:44.946Z,8.27
2022-10-13T01:15:23.209Z,7.47
2022-10-13T01:17:58.997Z,7.25
2022-10-13T01:20:55.256Z,6.65
2022-10-13T01:23:42.344Z,6.32
2022-10-13T01:26:45.078Z,6.30
2022-10-13T01:29:45.668Z,5.18
2022-10-13T01:32:29.453Z,6.65
2022-10-13T01:35:26.111Z,6.07
2022-10-13T01:37:52.778Z,6.18
2022-10-13T01:40:39.752Z,5.93
2022-10-13T01:43:20.163Z,5.20
2022-10-13T01:45:58.555Z,4.93
2022-10-13T01:48:26.596Z,5.80
2022-10-13T01:50:54.187Z,5.80
2022-10-13T01:53:21.601Z,5.15
2022-10-13T01:55:55.828Z,5.25
2022-10-13T01:58:24.908Z,5.00
2022-10-13T02:01:13.354Z,6.00
2022-10-13T02:04:11.591Z,6.93
2022-10-13T02:06:55.342Z,7.60
2022-10-13T02:09:30.367Z,7.13
2022-10-13T02:12:07.226Z,7.65
2022-10-13T02:14:37.788Z,6.53
2022-10-13T02:17:05.589Z,6.25
2022-10-13T02:19:37.295Z,7.25
2022-10-13T02:22:05.432Z,7.88
2022-10-13T02:24:33.132Z,7.43
2022-10-13T02:27:00.037Z,7.72
2022-10-13T02:29:26.873Z,7.10
2022-10-13T02:31:54.864Z,7.85
2022-10-13T02:34:21.801Z,7.40
2022-10-13T02:36:48.698Z,7.30
2022-10-13T02:39:15.597Z,8.15
2022-10-13T02:41:42.297Z,6.63
2022-10-13T02:44:09.003Z,5.50
2022-10-13T02:46:41.232Z,3.83
2022-10-13T02:51:39.708Z,3.85
2022-10-13T02:54:06.820Z,4.63
2022-10-13T02:56:33.510Z,4.05
2022-10-13T02:59:00.184Z,4.40
2022-10-13T03:01:27.059Z,4.18
2022-10-13T03:03:53.936Z,4.10
2022-10-13T03:06:20.646Z,4.63
2022-10-13T03:08:47.477Z,5.43
2022-10-13T03:11:14.199Z,5.10
2022-10-13T03:13:40.860Z,4.78
2022-10-13T03:16:07.850Z,4.88
2022-10-13T03:18:35.073Z,3.85
2022-10-13T03:21:04.891Z,4.35
2022-10-13T03:23:31.770Z,3.63
2022-10-13T03:25:59.145Z,4.00
2022-10-13T03:31:10.663Z,5.35
2022-10-13T03:33:37.518Z,4.45
2022-10-13T03:36:05.553Z,4.57
2022-10-13T03:38:33.863Z,5.30
2022-10-13T03:41:08.525Z,4.68
2022-10-13T03:43:35.325Z,4.75
2022-10-13T03:46:04.171Z,4.38
2022-10-13T03:48:31.281Z,4.80
2022-10-13T03:50:58.152Z,4.63
2022-10-13T03:53:25.544Z,4.97
2022-10-13T03:55:56.194Z,4.57
2022-10-13T03:58:24.985Z,4.25
2022-10-13T04:00:53.503Z,4.82
2022-10-13T04:03:20.214Z,7.15
2022-10-13T04:05:47.257Z,5.10
2022-10-13T04:08:15.077Z,6.45
2022-10-13T04:10:42.253Z,5.38
2022-10-13T04:13:09.110Z,6.55
2022-10-13T04:15:39.567Z,5.80
2022-10-13T04:18:08.061Z,5.80
2022-10-13T04:20:39.450Z,5.50
2022-10-13T04:23:07.224Z,6.25
2022-10-13T04:25:37.782Z,6.07
2022-10-13T04:28:06.588Z,7.43
2022-10-13T04:30:36.742Z,8.27
2022-10-13T04:33:03.757Z,8.32
2022-10-13T04:35:30.759Z,6.43
2022-10-13T04:37:58.024Z,6.22
2022-10-13T04:40:25.996Z,5.45
2022-10-13T04:42:52.735Z,5.82
2022-10-13T04:45:19.554Z,6.25
2022-10-13T04:47:49.748Z,7.20
2022-10-13T04:50:18.263Z,6.18
2022-10-13T04:52:47.560Z,4.55
2022-10-13T04:55:14.236Z,7.68
2022-10-13T04:57:40.912Z,7.80
2022-10-13T05:00:08.296Z,7.38
2022-10-13T05:05:03.605Z,8.15
2022-10-13T05:07:31.948Z,6.57
2022-10-13T05:09:58.693Z,7.32
2022-10-13T05:12:25.409Z,8.13
2022-10-13T05:14:52.154Z,6.82
2022-10-13T05:17:18.813Z,7.85
2022-10-13T05:19:45.488Z,4.63
2022-10-13T05:22:12.255Z,5.50
2022-10-13T05:24:41.372Z,6.25
2022-10-13T05:27:12.821Z,5.20
2022-10-13T05:29:40.443Z,4.88
2022-10-13T05:32:08.221Z,4.43
2022-10-13T05:34:34.949Z,4.47
2022-10-13T05:37:02.006Z,4.05
2022-10-13T05:39:28.832Z,4.30
2022-10-13T05:41:55.605Z,4.07
2022-10-13T05:44:22.425Z,5.25
2022-10-13T05:46:55.886Z,4.18
2022-10-13T05:51:52.654Z,4.80
2022-10-13T05:54:26.440Z,4.78
2022-10-13T05:57:07.653Z,5.68
2022-10-13T05:59:42.923Z,6.47
2022-10-13T06:02:14.694Z,6.78
2022-10-13T06:04:46.405Z,6.63
2022-10-13T06:07:13.362Z,7.70
2022-10-13T06:09:41.369Z,8.18
2022-10-13T06:12:09.487Z,8.27
2022-10-13T06:14:37.174Z,7.78
2022-10-13T06:17:06.884Z,7.93
2022-10-13T06:22:07.316Z,8.00
2022-10-13T06:24:34.046Z,9.30
2022-10-13T06:27:00.826Z,9.50
2022-10-13T06:29:27.571Z,10.73
2022-10-13T06:31:54.290Z,11.35
2022-10-13T06:34:21.086Z,10.63
2022-10-13T06:36:47.789Z,9.85
2022-10-13T06:39:14.480Z,7.97
2022-10-13T06:41:41.275Z,9.43
2022-10-13T06:44:08.050Z,8.85
2022-10-13T06:46:34.748Z,9.32
2022-10-13T06:49:01.465Z,9.50
2022-10-13T06:51:29.418Z,7.65
2022-10-13T06:53:57.220Z,7.65
2022-10-13T06:56:25.748Z,8.43
2022-10-13T06:58:52.498Z,7.60
2022-10-13T07:01:19.269Z,8.18
2022-10-13T07:03:51.888Z,8.75
2022-10-13T07:06:20.851Z,7.95
2022-10-13T07:08:49.235Z,7.70
2022-10-13T07:11:18.580Z,7.53
2022-10-13T07:13:49.968Z,7.35
2022-10-13T07:16:17.319Z,6.35
2022-10-13T07:18:46.614Z,7.60
2022-10-13T07:21:13.302Z,7.20
2022-10-13T07:23:40.246Z,6.93
2022-10-13T07:26:08.765Z,7.45
2022-10-13T07:28:35.526Z,6.88
2022-10-13T07:31:08.128Z,7.20
2022-10-13T07:33:37.453Z,6.43
2022-10-13T07:36:05.123Z,7.28
2022-10-13T07:38:32.101Z,7.80
2022-10-13T07:41:03.303Z,7.05
2022-10-13T07:43:30.070Z,7.00
2022-10-13T07:46:04.619Z,5.88
2022-10-13T07:48:32.409Z,6.57
2022-10-13T07:51:10.447Z,6.82
2022-10-13T07:53:37.268Z,6.20
2022-10-13T07:56:06.260Z,7.63
2022-10-13T07:58:34.302Z,6.28
2022-10-13T08:01:01.920Z,6.03
2022-10-13T08:03:30.451Z,7.10
2022-10-13T08:06:00.040Z,5.93
2022-10-13T08:08:27.182Z,5.78
2022-10-13T08:13:28.113Z,6.43
2022-10-13T08:15:54.835Z,6.35
2022-10-13T08:18:23.061Z,5.72
2022-10-13T08:20:49.814Z,6.15
2022-10-13T08:23:18.054Z,6.15
2022-10-13T08:25:50.230Z,6.68
2022-10-13T08:28:19.827Z,5.20
2022-10-13T08:30:47.209Z,5.95
2022-10-13T08:33:14.101Z,6.45
2022-10-13T08:35:42.366Z,5.78
2022-10-13T08:38:09.132Z,6.18
2022-10-13T08:40:37.096Z,5.95
2022-10-13T08:43:08.694Z,7.20
2022-10-13T08:45:41.354Z,6.22
2022-10-13T08:48:32.532Z,6.75
2022-10-13T08:51:05.730Z,6.60
2022-10-13T08:53:40.230Z,7.13
2022-10-13T08:56:25.204Z,5.30
2022-10-13T08:58:54.328Z,8.40
2022-10-13T09:01:24.652Z,6.82
2022-10-13T09:03:56.241Z,6.28
2022-10-13T09:06:28.817Z,6.57
2022-10-13T09:09:02.330Z,6.38
2022-10-13T09:11:32.243Z,5.85
2022-10-13T09:14:05.427Z,5.72
2022-10-13T09:16:44.034Z,6.65
2022-10-13T09:19:22.418Z,5.85
2022-10-13T09:21:55.110Z,6.20
2022-10-13T09:24:24.261Z,6.53
2022-10-13T09:27:03.548Z,6.22
2022-10-13T09:29:32.309Z,6.00
2022-10-13T09:32:23.806Z,6.82
2022-10-13T09:34:51.997Z,6.28
2022-10-13T09:37:22.012Z,7.22
2022-10-13T09:40:14.658Z,6.70
2022-10-13T09:42:41.474Z,6.05
2022-10-13T09:45:21.424Z,6.78
2022-10-13T09:47:54.929Z,7.03
2022-10-13T09:50:28.800Z,6.80
2022-10-13T09:53:10.204Z,7.32
2022-10-13T09:55:36.952Z,6.72
2022-10-13T09:58:31.253Z,7.30
2022-10-13T10:00:58.995Z,6.85
2022-10-13T10:03:34.375Z,7.38
2022-10-13T10:06:12.188Z,6.95
2022-10-13T10:09:04.285Z,6.60
2022-10-13T10:11:40.488Z,6.60
2022-10-13T10:14:25.184Z,7.50
2022-10-13T10:17:21.073Z,7.15
2022-10-13T10:20:14.730Z,8.52
2022-10-13T10:22:53.273Z,7.68
2022-10-13T10:25:25.946Z,7.47
2022-10-13T10:28:18.977Z,7.47
2022-10-13T10:30:56.600Z,7.90
2022-10-13T10:33:41.978Z,8.45
2022-10-13T10:36:18.844Z,7.03
2022-10-13T10:39:12.579Z,7.53
2022-10-13T10:41:48.221Z,7.85
2022-10-13T10:44:24.976Z,7.47
2022-10-13T10:46:57.680Z,8.73
2022-10-13T10:49:30.556Z,7.70
2022-10-13T10:51:59.315Z,7.07
2022-10-13T10:54:49.923Z,7.75
2022-10-13T10:57:28.466Z,6.68
2022-10-13T11:00:16.284Z,6.20
2022-10-13T11:02:56.610Z,6.40
2022-10-13T11:05:23.343Z,6.45
2022-10-13T11:07:53.144Z,6.43
2022-10-13T11:10:21.917Z,6.72
2022-10-13T11:12:52.424Z,6.95
2022-10-13T11:15:23.652Z,6.68
2022-10-13T11:17:51.358Z,6.10
2022-10-13T11:20:21.087Z,6.07
2022-10-13T11:22:59.989Z,5.90
2022-10-13T11:25:35.808Z,5.90
2022-10-13T11:28:22.687Z,5.88
2022-10-13T11:30:50.760Z,6.18
2022-10-13T11:33:36.857Z,6.22
2022-10-13T11:36:32.950Z,6.00
2022-10-13T11:39:21.074Z,6.00
2022-10-13T11:42:11.414Z,5.90
2022-10-13T11:45:01.497Z,5.25
2022-10-13T11:47:54.570Z,6.05
2022-10-13T11:50:44.224Z,5.68
2022-10-13T11:53:13.877Z,6.43
2022-10-13T11:55:58.442Z,4.68
2022-10-13T11:58:26.394Z,4.93
2022-10-13T12:01:03.085Z,5.57
2022-10-13T12:03:34.025Z,5.45
2022-10-13T12:06:22.186Z,5.78
2022-10-13T12:08:51.792Z,5.32
2022-10-13T12:11:28.622Z,5.40
2022-10-13T12:13:56.101Z,5.53
2022-10-13T12:16:23.030Z,4.78
2022-10-13T12:18:50.276Z,5.70
2022-10-13T12:21:23.281Z,5.00
2022-10-13T12:23:51.590Z,6.75
2022-10-13T12:26:24.279Z,6.40
2022-10-13T12:29:00.811Z,6.15
2022-10-13T12:31:40.345Z,6.38
2022-10-13T12:34:32.312Z,5.78
2022-10-13T12:37:03.652Z,5.63
2022-10-13T12:39:33.561Z,6.22
2022-10-13T12:42:03.174Z,5.35
2022-10-13T12:44:32.047Z,5.90
2022-10-13T12:47:03.684Z,7.10
2022-10-13T12:49:35.478Z,5.68
2022-10-13T12:52:14.433Z,5.70
2022-10-13T12:54:51.990Z,5.72
2022-10-13T12:57:37.658Z,6.20
2022-10-13T13:00:20.020Z,6.05
2022-10-13T13:03:06.771Z,7.13
2022-10-13T13:05:51.582Z,6.90
2022-10-13T13:08:23.945Z,6.53
2022-10-13T13:10:58.070Z,6.32
2022-10-13T13:13:25.377Z,6.35
2022-10-13T13:15:52.718Z,6.22
2022-10-13T13:18:22.443Z,6.15
2022-10-13T13:20:49.128Z,6.18
2022-10-13T13:23:18.913Z,6.93
2022-10-13T13:25:46.879Z,7.30
2022-10-13T13:28:15.826Z,6.97
2022-10-13T13:30:42.681Z,6.60
2022-10-13T13:35:41.738Z,6.28
2022-10-13T13:38:10.133Z,6.72
2022-10-13T13:40:36.793Z,5.88
2022-10-13T13:43:03.465Z,5.95
2022-10-13T13:45:31.045Z,6.30
2022-10-13T13:48:00.648Z,6.40
2022-10-13T13:50:33.290Z,6.88
2022-10-13T13:53:01.151Z,6.15
2022-10-13T13:55:29.706Z,6.35
2022-10-13T13:57:57.386Z,7.13
2022-10-13T14:00:25.039Z,7.63
2022-10-13T14:02:56.106Z,6.28
2022-10-13T14:05:23.566Z,6.65
2022-10-13T14:07:53.853Z,6.50
2022-10-13T14:10:20.517Z,6.25
2022-10-13T14:12:47.223Z,6.88
2022-10-13T14:15:13.921Z,6.82
2022-10-13T14:17:40.588Z,7.97
2022-10-13T14:20:07.720Z,7.35
2022-10-13T14:22:38.991Z,6.22
2022-10-13T14:25:06.667Z,6.50
2022-10-13T14:27:34.848Z,7.32
2022-10-13T14:30:02.487Z,7.05
2022-10-13T14:32:29.277Z,6.38
2022-10-13T14:34:55.982Z,6.65
2022-10-13T14:37:23.897Z,6.80
2022-10-13T14:39:51.762Z,8.38
2022-10-13T14:42:18.518Z,6.15
2022-10-13T14:44:45.235Z,6.57
2022-10-13T14:47:12.228Z,6.47
2022-10-13T14:52:06.104Z,7.03
2022-10-13T14:54:32.809Z,7.40
2022-10-13T14:57:01.114Z,6.50
2022-10-13T14:59:27.834Z,6.32
2022-10-13T15:01:54.505Z,7.47
2022-10-13T15:04:21.232Z,7.35
2022-10-13T15:06:47.929Z,7.45
2022-10-13T15:09:14.658Z,7.00
2022-10-13T15:11:41.351Z,8.13
2022-10-13T15:14:09.616Z,7.43
2022-10-13T15:16:37.783Z,7.82
2022-10-13T15:19:05.014Z,7.50
2022-10-13T15:23:58.418Z,7.30
2022-10-13T15:26:25.205Z,7.82
2022-10-13T15:28:53.362Z,7.78
2022-10-13T15:31:21.488Z,8.15
2022-10-13T15:33:52.992Z,7.55
2022-10-13T15:36:22.583Z,7.53
2022-10-13T15:38:49.314Z,7.35
2022-10-13T15:41:16.188Z,8.13
2022-10-13T15:43:43.214Z,12.20
2022-10-13T15:46:21.007Z,7.53
2022-10-13T15:48:49.482Z,7.47
2022-10-13T15:51:19.522Z,7.70
2022-10-13T15:53:49.841Z,8.93
2022-10-13T15:56:17.097Z,8.25
2022-10-13T16:01:12.538Z,8.32
2022-10-13T16:03:39.748Z,7.60
2022-10-13T16:06:08.892Z,7.93
2022-10-13T16:08:39.970Z,7.90
2022-10-13T16:11:15.823Z,7.13
2022-10-13T16:13:46.310Z,7.47
2022-10-13T16:16:13.114Z,7.25
2022-10-13T16:18:40.669Z,8.20
2022-10-13T16:21:18.038Z,7.43
2022-10-13T16:23:45.661Z,9.38
2022-10-13T16:26:12.358Z,7.40
2022-10-13T16:28:39.184Z,7.72
2022-10-13T16:31:14.357Z,7.80
2022-10-13T16:33:43.728Z,9.73
2022-10-13T16:36:13.232Z,8.45
2022-10-13T16:38:40.261Z,9.18
2022-10-13T16:41:11.094Z,8.43
2022-10-13T16:43:38.006Z,8.55
2022-10-13T16:46:08.084Z,8.75
2022-10-13T16:48:35.013Z,9.65
2022-10-13T16:51:06.653Z,8.90
2022-10-13T16:53:33.988Z,9.48
2022-10-13T16:58:27.292Z,10.02
2022-10-13T17:00:54.069Z,10.63
2022-10-13T17:03:20.802Z,10.80
2022-10-13T17:05:52.676Z,10.50
2022-10-13T17:08:19.329Z,9.43
2022-10-13T17:10:46.140Z,9.35
2022-10-13T17:13:12.790Z,9.40
2022-10-13T17:15:39.493Z,8.93
2022-10-13T17:18:06.866Z,10.18
2022-10-13T17:23:00.150Z,9.85
2022-10-13T17:25:26.857Z,10.20
2022-10-13T17:27:53.528Z,9.43
2022-10-13T17:30:20.188Z,11.27
2022-10-13T17:32:46.836Z,10.50
2022-10-13T17:35:17.847Z,11.13
2022-10-13T17:37:44.701Z,10.38
2022-10-13T17:40:12.278Z,10.10
2022-10-13T17:42:38.972Z,10.68
2022-10-13T17:45:06.055Z,11.00
2022-10-13T17:47:32.906Z,11.02
2022-10-13T17:49:59.586Z,13.18
2022-10-13T17:52:26.888Z,10.73
2022-10-13T17:54:53.651Z,12.60
2022-10-13T17:57:21.824Z,9.27
2022-10-13T17:59:49.613Z,10.35
2022-10-13T18:02:16.334Z,10.73
2022-10-13T18:04:43.084Z,10.13
2022-10-13T18:07:09.768Z,9.73
2022-10-13T18:09:36.456Z,9.13
2022-10-13T18:12:03.198Z,8.68
2022-10-13T18:14:29.891Z,8.77
2022-10-13T18:16:56.614Z,8.52
2022-10-13T18:19:23.304Z,8.05
2022-10-13T18:21:50.536Z,8.45
2022-10-13T18:24:17.238Z,6.88
2022-10-13T18:26:44.247Z,6.60
2022-10-13T18:29:12.277Z,7.38
2022-10-13T18:31:40.427Z,6.97
2022-10-13T18:34:12.987Z,6.57
2022-10-13T18:36:42.827Z,6.60
2022-10-13T18:39:14.198Z,6.35
2022-10-13T18:41:45.304Z,7.45
2022-10-13T18:44:12.458Z,7.38
2022-10-13T18:46:40.028Z,6.13
2022-10-13T18:49:10.421Z,7.30
2022-10-13T18:51:39.332Z,6.80
2022-10-13T18:54:07.267Z,7.18
2022-10-13T18:56:34.408Z,6.53
2022-10-13T18:59:01.928Z,8.75
2022-10-13T19:01:33.847Z,7.70
2022-10-13T19:04:01.245Z,6.32
2022-10-13T19:06:31.841Z,6.55
2022-10-13T19:09:01.486Z,6.68
2022-10-13T19:11:29.325Z,7.32
2022-10-13T19:13:57.465Z,5.95
2022-10-13T19:16:26.716Z,5.65
2022-10-13T19:18:53.563Z,6.25
2022-10-13T19:21:21.861Z,6.10
2022-10-13T19:23:49.329Z,4.95
2022-10-13T19:26:25.277Z,5.65
2022-10-13T19:28:57.305Z,6.05
2022-10-13T19:31:27.151Z,5.78
2022-10-13T19:33:55.385Z,6.05
2022-10-13T19:36:23.642Z,5.93
2022-10-13T19:38:51.985Z,6.65
2022-10-13T19:41:18.943Z,6.35
2022-10-13T19:43:45.669Z,7.43
2022-10-13T19:46:12.548Z,7.18
2022-10-13T19:48:39.257Z,7.20
2022-10-13T19:51:07.587Z,7.88
2022-10-13T19:53:35.170Z,7.57
2022-10-13T19:56:01.895Z,8.68
2022-10-13T19:58:28.620Z,8.88
2022-10-13T20:00:55.401Z,7.68
2022-10-13T20:03:22.117Z,9.55
2022-10-13T20:05:50.828Z,9.82
2022-10-13T20:08:18.553Z,10.63
2022-10-13T20:10:45.294Z,7.65
2022-10-13T20:13:12.074Z,7.55
2022-10-13T20:15:40.816Z,6.95
2022-10-13T20:18:09.268Z,7.32
2022-10-13T20:20:36.783Z,8.70
2022-10-13T20:23:03.688Z,7.43
2022-10-13T20:25:31.580Z,7.22
2022-10-13T20:27:58.343Z,5.88
2022-10-13T20:30:25.012Z,6.97
2022-10-13T20:32:51.687Z,7.20
2022-10-13T20:35:18.404Z,6.80
2022-10-13T20:37:45.082Z,9.23
2022-10-13T20:40:11.881Z,7.18
2022-10-13T20:42:38.753Z,7.25
2022-10-13T20:45:06.102Z,7.43
2022-10-13T20:49:59.641Z,5.18
2022-10-13T20:52:26.495Z,3.17
2022-10-13T20:54:53.220Z,2.95
2022-10-13T20:57:20.189Z,4.35
2022-10-13T20:59:49.047Z,3.67
2022-10-13T21:02:17.028Z,4.75
2022-10-13T21:04:43.767Z,6.35
2022-10-13T21:11:28.781Z,6.40
2022-10-13T21:13:55.613Z,7.63
2022-10-13T21:16:27.068Z,8.60
2022-10-13T21:18:54.818Z,8.38
2022-10-13T21:21:24.793Z,7.57
2022-10-13T21:24:00.301Z,6.05
2022-10-13T21:26:29.138Z,6.75
2022-10-13T21:28:56.514Z,5.60
2022-10-13T21:31:24.207Z,5.32
2022-10-13T21:33:51.365Z,5.95
2022-10-13T21:36:21.371Z,7.20
2022-10-13T21:38:51.646Z,5.90
2022-10-13T21:41:18.903Z,6.53
2022-10-13T21:46:15.733Z,6.28
2022-10-13T21:48:43.886Z,5.45
2022-10-13T21:51:20.677Z,5.47
2022-10-13T21:53:52.520Z,5.90
2022-10-13T21:56:20.602Z,4.82
2022-10-13T21:58:48.982Z,5.85
2022-10-13T22:01:17.265Z,5.22
2022-10-13T22:03:44.738Z,5.47
2022-10-13T22:06:19.025Z,4.75
2022-10-13T22:08:48.073Z,4.82
2022-10-13T22:11:22.119Z,6.10
2022-10-13T22:13:48.819Z,4.75
2022-10-13T22:16:21.721Z,4.55
2022-10-13T22:18:51.077Z,4.78
2022-10-13T22:21:21.545Z,5.28
2022-10-13T22:23:48.907Z,4.22
2022-10-13T22:28:45.735Z,4.20
2022-10-13T22:31:13.163Z,4.38
2022-10-13T22:36:09.230Z,3.80
2022-10-13T22:38:36.113Z,3.70
2022-10-13T22:41:05.306Z,4.10
2022-10-13T22:43:32.564Z,4.03
2022-10-13T22:46:19.265Z,4.60
2022-10-13T22:48:46.680Z,4.03
2022-10-13T22:51:17.014Z,3.72
2022-10-13T22:53:44.636Z,4.78
2022-10-13T22:56:32.758Z,4.05
2022-10-13T22:59:07.941Z,4.60
2022-10-13T23:01:35.362Z,4.65
2022-10-13T23:04:02.723Z,4.13
2022-10-13T23:09:00.557Z,3.80
2022-10-13T23:11:27.709Z,4.60
2022-10-13T23:13:54.370Z,5.18
2022-10-13T23:16:24.018Z,4.43
2022-10-13T23:18:51.490Z,4.38
2022-10-13T23:21:27.045Z,5.72
2022-10-13T23:23:58.528Z,3.78
2022-10-13T23:26:26.052Z,3.85
2022-10-13T23:28:54.980Z,3.65
2022-10-13T23:31:21.718Z,4.00
2022-10-13T23:33:48.771Z,3.28
2022-10-13T23:36:19.161Z,3.88
2022-10-13T23:38:57.678Z,3.95
2022-10-13T23:41:24.954Z,4.10
2022-10-13T23:46:18.657Z,3.85
2022-10-13T23:48:45.843Z,3.80
2022-10-13T23:51:24.111Z,3.95
2022-10-13T23:53:51.521Z,4.70
2022-10-13T23:56:18.366Z,3.88
2022-10-13T23:58:45.156Z,4.15
